Melbourne Beach, FL (32951)

12:00 PM EDT on October 23, 2014 (GMT -0400)
Melbourne Shores | Change Station
CLOSE
Current Station
Personal Weather Station
Location: Melbourne Beach, FL
Elevation: 34 ft
Nearby Weather Stations

Elev 34 ft 27.96 °N, 80.51 °W | Updated 1 second ago

Partly Cloudy
Partly Cloudy
76.2 °F
Feels Like 78 °F
N
14.0
Wind Variable Wind from ENE
Gusts 17.0 mph

Today
High -- | Low -- °F
--% Chance of Precip.
Yesterday
High -- | Low -- °F
Precip. -- in
7:27 AM 6:45 PM
Waning Crescent, 0% visible
Pressure 30.00 in
Visibility 10.0 miles
Clouds Few 4000 ft
Heat Index 78 °F
Dew Point 64 °F
Humidity 65%
Rainfall 0.00 in
Snow Depth Not available.
UV 8 out of 12
Pollen 6.10 out of 12
Air Quality Not available.
Flu Activity Local Activity
METAR KMLB 231553Z 04010KT 10SM FEW040 27/16 A3000 RMK AO2 SLP157 T02720156

More Conditions Fewer Conditions

Pressure 30.00 in
Visibility 10.0 miles
Clouds Few 4000 ft
Heat Index 78 °F
Dew Point 64 °F
Humidity 65%
Rainfall 0.00 in
Snow Depth Not available.
UV 8 out of 12
Pollen 6.10 out of 12
Air Quality Not available.
Flu Activity Local Activity
METAR KMLB 231553Z 04010KT 10SM FEW040 27/16 A3000 RMK AO2 SLP157 T02720156

More Conditions Fewer Conditions

10-Day Weather Forecast

Almanac

Astronomy

Oct. 23, 2014 Rise Set
Actual Time 7:27 AM EDT 6:45 PM EDT
Civil Twilight 7:03 AM EDT 7:08 PM EDT
Nautical Twilight 6:35 AM EDT 7:36 PM EDT
Astronomical Twilight 6:08 AM EDT 8:03 PM EDT
Moon 7:07 AM EDT 6:45 PM EDT
Length of Visible Light 12h 05m
Length of Day
11h 17m
Tomorrow will be 1m 32s shorter.
Waning Crescent, 0% of the Moon is Illuminated
Today
Waning Crescent
Oct 23
New
Oct 30
First Quarter
Nov 6
Full
Nov 14
Last Quarter

Today's Extremes

State Highs State Lows

Community

WunderPhotos

Upload Photos

1,764,288 photos uploaded!

WunderBlogs® & News

Nearby

Snow Depth

Station Depth Elevation
No new snow has been reported.

Earthquake Activity

City Distance Mag. Time & Date
No recent earthquake activity has been reported nearby.
Minimum magnitude displayed is 2.5.

Coastal Water Temperatures

Place Temperature
Trident Pier, FL 80.1 °F
Fort Myers, FL 80.1 °F
Lake Worth, FL 81.0 °F

Nearby Weather Stations